sensor_id;sensor_type;location;lat;lon;timestamp;pressure;altitude;pressure_sealevel;temperature;humidity
32875;BME280;40468;42.128;24.750;2023-09-08T00:00:13;100122.16;;;21.92;55.49
32875;BME280;40468;42.128;24.750;2023-09-08T00:01:44;100117.69;;;21.92;55.65
32875;BME280;40468;42.128;24.750;2023-09-08T00:03:15;100123.81;;;21.93;55.48
32875;BME280;40468;42.128;24.750;2023-09-08T00:04:46;100121.88;;;21.95;55.58
32875;BME280;40468;42.128;24.750;2023-09-08T00:06:17;100117.41;;;21.95;55.56
32875;BME280;40468;42.128;24.750;2023-09-08T00:07:49;100115.72;;;21.94;55.54
32875;BME280;40468;42.128;24.750;2023-09-08T00:09:21;100112.38;;;21.92;55.55
32875;BME280;40468;42.128;24.750;2023-09-08T00:10:52;100114.19;;;21.92;55.45
32875;BME280;40468;42.128;24.750;2023-09-08T00:12:23;100114.31;;;21.90;55.22
32875;BME280;40468;42.128;24.750;2023-09-08T00:13:54;100111.66;;;21.90;55.32
32875;BME280;40468;42.128;24.750;2023-09-08T00:15:25;100121.44;;;21.90;55.49
32875;BME280;40468;42.128;24.750;2023-09-08T00:16:56;100119.63;;;21.90;55.27
32875;BME280;40468;42.128;24.750;2023-09-08T00:18:27;100115.28;;;21.89;55.24
32875;BME280;40468;42.128;24.750;2023-09-08T00:19:59;100120.59;;;21.89;55.25
32875;BME280;40468;42.128;24.750;2023-09-08T00:21:30;100118.06;;;21.88;55.40
32875;BME280;40468;42.128;24.750;2023-09-08T00:23:03;100118.34;;;21.85;55.29
32875;BME280;40468;42.128;24.750;2023-09-08T00:24:34;100119.31;;;21.84;55.45
32875;BME280;40468;42.128;24.750;2023-09-08T00:26:05;100117.78;;;21.81;55.95
32875;BME280;40468;42.128;24.750;2023-09-08T00:27:36;100117.88;;;21.79;55.77
32875;BME280;40468;42.128;24.750;2023-09-08T00:29:08;100116.94;;;21.80;55.95
32875;BME280;40468;42.128;24.750;2023-09-08T00:30:39;100116.09;;;21.80;55.89
32875;BME280;40468;42.128;24.750;2023-09-08T00:32:10;100110.91;;;21.78;56.23
32875;BME280;40468;42.128;24.750;2023-09-08T00:33:41;100115.38;;;21.78;56.46
32875;BME280;40468;42.128;24.750;2023-09-08T00:35:14;100115.50;;;21.76;56.43
32875;BME280;40468;42.128;24.750;2023-09-08T00:36:45;100115.78;;;21.73;56.80
32875;BME280;40468;42.128;24.750;2023-09-08T00:38:17;100114.09;;;21.72;56.77
32875;BME280;40468;42.128;24.750;2023-09-08T00:39:49;100118.56;;;21.72;56.96
32875;BME280;40468;42.128;24.750;2023-09-08T00:41:22;100116.59;;;21.74;56.88
32875;BME280;40468;42.128;24.750;2023-09-08T00:42:54;100120.94;;;21.75;56.78
32875;BME280;40468;42.128;24.750;2023-09-08T00:44:26;100119.97;;;21.76;56.77
32875;BME280;40468;42.128;24.750;2023-09-08T00:45:56;100118.31;;;21.75;57.08
32875;BME280;40468;42.128;24.750;2023-09-08T00:47:30;100118.56;;;21.72;57.18
32875;BME280;40468;42.128;24.750;2023-09-08T00:49:01;100116.19;;;21.69;57.40
32875;BME280;40468;42.128;24.750;2023-09-08T00:50:33;100123.31;;;21.68;57.30
32875;BME280;40468;42.128;24.750;2023-09-08T00:54:09;100117.59;;;21.73;57.48
32875;BME280;40468;42.128;24.750;2023-09-08T00:55:41;100117.31;;;21.76;57.53
32875;BME280;40468;42.128;24.750;2023-09-08T00:57:12;100113.72;;;21.77;57.21
32875;BME280;40468;42.128;24.750;2023-09-08T00:58:44;100115.38;;;21.78;57.27
32875;BME280;40468;42.128;24.750;2023-09-08T01:00:15;100111.75;;;21.79;57.12
32875;BME280;40468;42.128;24.750;2023-09-08T01:01:47;100100.69;;;21.74;57.51
32875;BME280;40468;42.128;24.750;2023-09-08T01:03:17;100110.34;;;21.75;57.75
32875;BME280;40468;42.128;24.750;2023-09-08T01:04:49;100107.97;;;21.72;57.78
32875;BME280;40468;42.128;24.750;2023-09-08T01:06:19;100100.28;;;21.69;57.74
32875;BME280;40468;42.128;24.750;2023-09-08T01:07:52;100103.63;;;21.71;57.62
32875;BME280;40468;42.128;24.750;2023-09-08T01:09:24;100113.28;;;21.72;57.61
32875;BME280;40468;42.128;24.750;2023-09-08T01:10:56;100105.31;;;21.72;58.01
32875;BME280;40468;42.128;24.750;2023-09-08T01:12:27;100100.03;;;21.72;57.82
32875;BME280;40468;42.128;24.750;2023-09-08T01:13:59;100100.03;;;21.72;57.77
32875;BME280;40468;42.128;24.750;2023-09-08T01:15:29;100101.69;;;21.73;58.01
32875;BME280;40468;42.128;24.750;2023-09-08T01:17:01;100098.06;;;21.74;57.93
32875;BME280;40468;42.128;24.750;2023-09-08T01:18:31;100092.63;;;21.75;57.77
32875;BME280;40468;42.128;24.750;2023-09-08T01:20:04;100096.94;;;21.76;58.19
32875;BME280;40468;42.128;24.750;2023-09-08T01:21:52;100095.16;;;21.77;58.13
32875;BME280;40468;42.128;24.750;2023-09-08T01:23:32;100095.84;;;21.79;58.04
32875;BME280;40468;42.128;24.750;2023-09-08T01:25:12;100089.72;;;21.78;58.11
32875;BME280;40468;42.128;24.750;2023-09-08T01:26:44;100088.72;;;21.79;58.12
32875;BME280;40468;42.128;24.750;2023-09-08T01:28:15;100089.72;;;21.78;57.99
32875;BME280;40468;42.128;24.750;2023-09-08T01:29:48;100087.06;;;21.78;58.04
32875;BME280;40468;42.128;24.750;2023-09-08T01:31:19;100086.34;;;21.76;58.37
32875;BME280;40468;42.128;24.750;2023-09-08T01:32:51;100088.16;;;21.76;58.21
32875;BME280;40468;42.128;24.750;2023-09-08T01:34:22;100088.31;;;21.74;58.45
32875;BME280;40468;42.128;24.750;2023-09-08T01:35:54;100088.69;;;21.70;58.64
32875;BME280;40468;42.128;24.750;2023-09-08T01:37:25;100084.38;;;21.69;58.62
32875;BME280;40468;42.128;24.750;2023-09-08T01:38:56;100087.03;;;21.69;58.81
32875;BME280;40468;42.128;24.750;2023-09-08T01:40:29;100084.38;;;21.69;58.88
32875;BME280;40468;42.128;24.750;2023-09-08T01:42:01;100083.56;;;21.68;58.64
32875;BME280;40468;42.128;24.750;2023-09-08T01:43:32;100084.50;;;21.67;58.82
32875;BME280;40468;42.128;24.750;2023-09-08T01:45:04;100082.84;;;21.66;58.68
32875;BME280;40468;42.128;24.750;2023-09-08T01:46:34;100089.94;;;21.66;59.02
32875;BME280;40468;42.128;24.750;2023-09-08T01:48:06;100087.41;;;21.64;58.92
32875;BME280;40468;42.128;24.750;2023-09-08T01:49:37;100092.41;;;21.57;59.22
32875;BME280;40468;42.128;24.750;2023-09-08T01:51:08;100097.28;;;21.52;59.56
32875;BME280;40468;42.128;24.750;2023-09-08T01:52:40;100092.66;;;21.45;59.72
32875;BME280;40468;42.128;24.750;2023-09-08T01:54:10;100095.81;;;21.39;60.15
32875;BME280;40468;42.128;24.750;2023-09-08T01:55:43;100094.34;;;21.34;59.94
32875;BME280;40468;42.128;24.750;2023-09-08T01:57:15;100096.94;;;21.36;60.07
32875;BME280;40468;42.128;24.750;2023-09-08T02:00:49;100100.31;;;21.27;60.57
32875;BME280;40468;42.128;24.750;2023-09-08T02:02:21;100101.53;;;21.23;60.60
32875;BME280;40468;42.128;24.750;2023-09-08T02:03:51;100097.22;;;21.22;60.90
32875;BME280;40468;42.128;24.750;2023-09-08T02:05:23;100100.81;;;21.21;60.72
32875;BME280;40468;42.128;24.750;2023-09-08T02:06:55;100098.44;;;21.18;61.22
32875;BME280;40468;42.128;24.750;2023-09-08T02:08:27;100095.47;;;21.11;61.40
32875;BME280;40468;42.128;24.750;2023-09-08T02:09:57;100100.31;;;21.06;61.82
32875;BME280;40468;42.128;24.750;2023-09-08T02:11:30;100101.69;;;21.00;62.22
32875;BME280;40468;42.128;24.750;2023-09-08T02:13:01;100085.03;;;20.88;62.48
32875;BME280;40468;42.128;24.750;2023-09-08T02:14:33;100095.22;;;20.93;62.63
32875;BME280;40468;42.128;24.750;2023-09-08T02:16:03;100098.13;;;20.90;62.87
32875;BME280;40468;42.128;24.750;2023-09-08T02:17:35;100097.53;;;20.86;62.98
32875;BME280;40468;42.128;24.750;2023-09-08T02:19:06;100091.28;;;20.87;63.00
32875;BME280;40468;42.128;24.750;2023-09-08T02:20:37;100101.16;;;20.85;63.28
32875;BME280;40468;42.128;24.750;2023-09-08T02:22:09;100090.84;;;20.82;63.51
32875;BME280;40468;42.128;24.750;2023-09-08T02:23:39;100092.75;;;20.80;63.48
32875;BME280;40468;42.128;24.750;2023-09-08T02:25:11;100096.50;;;20.78;63.61
32875;BME280;40468;42.128;24.750;2023-09-08T02:26:45;100090.47;;;20.76;63.87
32875;BME280;40468;42.128;24.750;2023-09-08T02:28:16;100087.16;;;20.74;63.99
32875;BME280;40468;42.128;24.750;2023-09-08T02:29:47;100092.44;;;20.74;63.93
32875;BME280;40468;42.128;24.750;2023-09-08T02:31:18;100086.16;;;20.75;63.91
32875;BME280;40468;42.128;24.750;2023-09-08T02:32:49;100093.28;;;20.74;63.93
32875;BME280;40468;42.128;24.750;2023-09-08T02:34:20;100084.50;;;20.74;64.04
32875;BME280;40468;42.128;24.750;2023-09-08T02:35:51;100086.28;;;20.73;64.02
32875;BME280;40468;42.128;24.750;2023-09-08T02:37:22;100082.81;;;20.73;64.41
32875;BME280;40468;42.128;24.750;2023-09-08T02:38:54;100079.47;;;20.71;64.24
32875;BME280;40468;42.128;24.750;2023-09-08T02:40:24;100079.47;;;20.71;64.31
32875;BME280;40468;42.128;24.750;2023-09-08T02:41:57;100076.81;;;20.71;64.36
32875;BME280;40468;42.128;24.750;2023-09-08T02:43:28;100079.31;;;20.72;64.15
32875;BME280;40468;42.128;24.750;2023-09-08T02:44:59;100076.69;;;20.72;64.41
32875;BME280;40468;42.128;24.750;2023-09-08T02:46:30;100074.03;;;20.72;64.48
32875;BME280;40468;42.128;24.750;2023-09-08T02:48:02;100074.03;;;20.72;64.47
32875;BME280;40468;42.128;24.750;2023-09-08T02:49:32;100070.06;;;20.66;64.67
32875;BME280;40468;42.128;24.750;2023-09-08T02:51:04;100072.97;;;20.63;65.03
32875;BME280;40468;42.128;24.750;2023-09-08T02:52:34;100071.31;;;20.62;65.12
32875;BME280;40468;42.128;24.750;2023-09-08T02:54:08;100073.13;;;20.62;64.96
32875;BME280;40468;42.128;24.750;2023-09-08T02:55:38;100071.44;;;20.61;64.93
32875;BME280;40468;42.128;24.750;2023-09-08T02:57:11;100074.91;;;20.61;65.00
32875;BME280;40468;42.128;24.750;2023-09-08T02:58:42;100080.34;;;20.60;65.39
32875;BME280;40468;42.128;24.750;2023-09-08T03:00:14;100076.41;;;20.54;65.53
32875;BME280;40468;42.128;24.750;2023-09-08T03:01:45;100076.63;;;20.51;65.82
32875;BME280;40468;42.128;24.750;2023-09-08T03:03:16;100068.34;;;20.44;66.08
32875;BME280;40468;42.128;24.750;2023-09-08T03:04:47;100077.38;;;20.42;66.22
32875;BME280;40468;42.128;24.750;2023-09-08T03:06:19;100073.28;;;20.38;66.64
32875;BME280;40468;42.128;24.750;2023-09-08T03:07:50;100070.06;;;20.34;66.79
32875;BME280;40468;42.128;24.750;2023-09-08T03:09:21;100073.66;;;20.33;66.85
32875;BME280;40468;42.128;24.750;2023-09-08T03:10:54;100086.16;;;20.31;67.12
32875;BME280;40468;42.128;24.750;2023-09-08T03:12:27;100080.28;;;20.28;67.27
32875;BME280;40468;42.128;24.750;2023-09-08T03:13:59;100081.28;;;20.27;67.31
32875;BME280;40468;42.128;24.750;2023-09-08T03:15:30;100078.63;;;20.27;67.38
32875;BME280;40468;42.128;24.750;2023-09-08T03:17:01;100085.72;;;20.26;67.48
32875;BME280;40468;42.128;24.750;2023-09-08T03:18:32;100082.22;;;20.26;67.60
32875;BME280;40468;42.128;24.750;2023-09-08T03:20:04;100080.44;;;20.26;67.37
32875;BME280;40468;42.128;24.750;2023-09-08T03:21:37;100082.09;;;20.27;67.44
32875;BME280;40468;42.128;24.750;2023-09-08T03:23:09;100086.41;;;20.28;67.25
32875;BME280;40468;42.128;24.750;2023-09-08T03:24:40;100090.75;;;20.29;67.58
32875;BME280;40468;42.128;24.750;2023-09-08T03:26:12;100087.97;;;20.31;67.25
32875;BME280;40468;42.128;24.750;2023-09-08T03:27:45;100082.09;;;20.27;67.67
32875;BME280;40468;42.128;24.750;2023-09-08T03:29:15;100078.72;;;20.25;67.83
32875;BME280;40468;42.128;24.750;2023-09-08T03:30:47;100082.22;;;20.26;67.92
32875;BME280;40468;42.128;24.750;2023-09-08T03:32:17;100080.44;;;20.26;67.91
32875;BME280;40468;42.128;24.750;2023-09-08T03:33:49;100085.59;;;20.28;67.56
32875;BME280;40468;42.128;24.750;2023-09-08T03:35:20;100088.97;;;20.30;67.43
32875;BME280;40468;42.128;24.750;2023-09-08T03:36:51;100085.91;;;20.34;67.64
32875;BME280;40468;42.128;24.750;2023-09-08T03:38:23;100086.75;;;20.35;67.35
32875;BME280;40468;42.128;24.750;2023-09-08T03:39:54;100083.84;;;20.38;67.48
32875;BME280;40468;42.128;24.750;2023-09-08T03:41:25;100083.50;;;20.42;67.00
32875;BME280;40468;42.128;24.750;2023-09-08T03:42:57;100084.06;;;20.46;67.13
32875;BME280;40468;42.128;24.750;2023-09-08T03:44:29;100088.16;;;20.50;66.93
32875;BME280;40468;42.128;24.750;2023-09-08T03:45:59;100087.94;;;20.53;66.83
32875;BME280;40468;42.128;24.750;2023-09-08T03:47:31;100087.81;;;20.55;67.01
32875;BME280;40468;42.128;24.750;2023-09-08T03:49:01;100086.72;;;20.57;66.76
32875;BME280;40468;42.128;24.750;2023-09-08T03:50:34;100083.00;;;20.60;66.70
32875;BME280;40468;42.128;24.750;2023-09-08T03:52:06;100078.41;;;20.62;66.40
32875;BME280;40468;42.128;24.750;2023-09-08T03:53:36;100082.59;;;20.64;66.39
32875;BME280;40468;42.128;24.750;2023-09-08T03:55:08;100076.47;;;20.64;66.41
32875;BME280;40468;42.128;24.750;2023-09-08T03:56:38;100079.94;;;20.64;66.40
32875;BME280;40468;42.128;24.750;2023-09-08T03:58:11;100089.13;;;20.60;66.92
32875;BME280;40468;42.128;24.750;2023-09-08T03:59:43;100087.56;;;20.58;66.95
32875;BME280;40468;42.128;24.750;2023-09-08T04:01:13;100096.56;;;20.55;67.06
32875;BME280;40468;42.128;24.750;2023-09-08T04:02:45;100092.50;;;20.51;67.41
32875;BME280;40468;42.128;24.750;2023-09-08T04:04:15;100086.72;;;20.46;67.38
32875;BME280;40468;42.128;24.750;2023-09-08T04:05:50;100086.63;;;20.48;67.42
32875;BME280;40468;42.128;24.750;2023-09-08T04:07:21;100098.88;;;20.49;67.58
32875;BME280;40468;42.128;24.750;2023-09-08T04:08:52;100091.06;;;20.47;67.58
32875;BME280;40468;42.128;24.750;2023-09-08T04:10:23;100091.06;;;20.47;67.71
32875;BME280;40468;42.128;24.750;2023-09-08T04:11:54;100094.81;;;20.44;67.64
32875;BME280;40468;42.128;24.750;2023-09-08T04:13:27;100094.56;;;20.48;67.77
32875;BME280;40468;42.128;24.750;2023-09-08T04:14:58;100095.38;;;20.48;67.49
32875;BME280;40468;42.128;24.750;2023-09-08T04:16:29;100101.50;;;20.49;67.62
32875;BME280;40468;42.128;24.750;2023-09-08T04:18:01;100098.75;;;20.50;67.65
32875;BME280;40468;42.128;24.750;2023-09-08T04:19:32;100104.66;;;20.54;67.44
32875;BME280;40468;42.128;24.750;2023-09-08T04:21:05;100108.97;;;20.55;67.41
32875;BME280;40468;42.128;24.750;2023-09-08T04:22:36;100113.19;;;20.57;67.43
32875;BME280;40468;42.128;24.750;2023-09-08T04:24:08;100111.25;;;20.59;67.41
32875;BME280;40468;42.128;24.750;2023-09-08T04:25:40;100107.63;;;20.60;67.30
32875;BME280;40468;42.128;24.750;2023-09-08T04:27:12;100105.72;;;20.62;67.31
32875;BME280;40468;42.128;24.750;2023-09-08T04:28:44;100102.09;;;20.63;66.98
32875;BME280;40468;42.128;24.750;2023-09-08T04:30:15;100110.75;;;20.65;66.97
32875;BME280;40468;42.128;24.750;2023-09-08T04:31:46;100107.28;;;20.65;67.23
32875;BME280;40468;42.128;24.750;2023-09-08T04:33:18;100111.69;;;20.64;66.96
32875;BME280;40468;42.128;24.750;2023-09-08T04:34:48;100116.16;;;20.64;67.11
32875;BME280;40468;42.128;24.750;2023-09-08T04:36:20;100116.16;;;20.64;67.14
32875;BME280;40468;42.128;24.750;2023-09-08T04:37:51;100116.03;;;20.65;67.01
32875;BME280;40468;42.128;24.750;2023-09-08T04:39:23;100124.72;;;20.67;66.94
32875;BME280;40468;42.128;24.750;2023-09-08T04:40:54;100118.44;;;20.68;66.91
32875;BME280;40468;42.128;24.750;2023-09-08T04:42:26;100123.59;;;20.70;66.81
32875;BME280;40468;42.128;24.750;2023-09-08T04:43:57;100127.09;;;20.71;66.68
32875;BME280;40468;42.128;24.750;2023-09-08T04:45:29;100130.31;;;20.74;66.28
32875;BME280;40468;42.128;24.750;2023-09-08T04:47:00;100130.19;;;20.76;66.28
32875;BME280;40468;42.128;24.750;2023-09-08T04:48:32;100128.25;;;20.78;66.23
32875;BME280;40468;42.128;24.750;2023-09-08T04:50:02;100130.91;;;20.78;66.34
32875;BME280;40468;42.128;24.750;2023-09-08T04:51:34;100128.38;;;20.76;66.10
32875;BME280;40468;42.128;24.750;2023-09-08T04:53:05;100130.31;;;20.74;66.24
32875;BME280;40468;42.128;24.750;2023-09-08T04:54:37;100122.50;;;20.73;65.94
32875;BME280;40468;42.128;24.750;2023-09-08T04:56:07;100118.44;;;20.68;65.92
32875;BME280;40468;42.128;24.750;2023-09-08T04:57:39;100121.19;;;20.67;66.01
32875;BME280;40468;42.128;24.750;2023-09-08T04:59:11;100118.94;;;20.62;66.07
32875;BME280;40468;42.128;24.750;2023-09-08T05:00:42;100118.22;;;20.60;65.74
32875;BME280;40468;42.128;24.750;2023-09-08T05:02:13;100119.06;;;20.61;65.86
32875;BME280;40468;42.128;24.750;2023-09-08T05:03:45;100123.41;;;20.62;65.59
32875;BME280;40468;42.128;24.750;2023-09-08T05:05:16;100123.41;;;20.62;65.59
32875;BME280;40468;42.128;24.750;2023-09-08T05:06:48;100129.28;;;20.65;65.53
32875;BME280;40468;42.128;24.750;2023-09-08T05:08:18;100128.19;;;20.68;65.25
32875;BME280;40468;42.128;24.750;2023-09-08T05:09:50;100128.03;;;20.70;65.06
32875;BME280;40468;42.128;24.750;2023-09-08T05:11:21;100134.91;;;20.72;64.87
32875;BME280;40468;42.128;24.750;2023-09-08T05:12:52;100125.88;;;20.75;64.86
32875;BME280;40468;42.128;24.750;2023-09-08T05:14:25;100132.84;;;20.76;65.00
32875;BME280;40468;42.128;24.750;2023-09-08T05:15:56;100138.84;;;20.78;64.84
32875;BME280;40468;42.128;24.750;2023-09-08T05:17:30;100139.81;;;20.77;64.87
32875;BME280;40468;42.128;24.750;2023-09-08T05:19:02;100140.06;;;20.74;64.63
32875;BME280;40468;42.128;24.750;2023-09-08T05:20:32;100134.63;;;20.75;64.53
32875;BME280;40468;42.128;24.750;2023-09-08T05:22:04;100139.81;;;20.77;64.58
32875;BME280;40468;42.128;24.750;2023-09-08T05:23:35;100134.13;;;20.81;64.28
32875;BME280;40468;42.128;24.750;2023-09-08T05:25:07;100135.59;;;20.85;64.18
32875;BME280;40468;42.128;24.750;2023-09-08T05:26:38;100137.00;;;20.89;64.20
32875;BME280;40468;42.128;24.750;2023-09-08T05:28:09;100140.22;;;20.93;63.93
32875;BME280;40468;42.128;24.750;2023-09-08T05:29:43;100129.38;;;20.96;63.81
32875;BME280;40468;42.128;24.750;2023-09-08T05:31:14;100131.66;;;21.01;63.64
32875;BME280;40468;42.128;24.750;2023-09-08T05:32:45;100133.63;;;21.08;63.49
32875;BME280;40468;42.128;24.750;2023-09-08T05:34:16;100141.78;;;21.17;63.33
32875;BME280;40468;42.128;24.750;2023-09-08T05:35:47;100138.09;;;21.29;63.27
32875;BME280;40468;42.128;24.750;2023-09-08T05:37:19;100136.81;;;21.44;62.85
32875;BME280;40468;42.128;24.750;2023-09-08T05:38:51;100142.50;;;21.61;63.03
32875;BME280;40468;42.128;24.750;2023-09-08T05:40:21;100137.16;;;21.81;62.75
32875;BME280;40468;42.128;24.750;2023-09-08T05:41:54;100143.50;;;22.00;62.48
32875;BME280;40468;42.128;24.750;2023-09-08T05:43:26;100143.34;;;22.22;62.28
32875;BME280;40468;42.128;24.750;2023-09-08T05:44:58;100144.06;;;22.44;61.69
32875;BME280;40468;42.128;24.750;2023-09-08T05:46:29;100143.00;;;22.66;61.66
32875;BME280;40468;42.128;24.750;2023-09-08T05:48:00;100149.84;;;22.88;61.43
32875;BME280;40468;42.128;24.750;2023-09-08T05:49:32;100150.16;;;23.04;60.74
32875;BME280;40468;42.128;24.750;2023-09-08T05:51:03;100148.44;;;23.13;60.70
32875;BME280;40468;42.128;24.750;2023-09-08T05:52:36;100149.03;;;23.16;60.84
32875;BME280;40468;42.128;24.750;2023-09-08T05:54:07;100149.41;;;23.22;60.51
32875;BME280;40468;42.128;24.750;2023-09-08T05:55:39;100156.13;;;23.35;60.50
32875;BME280;40468;42.128;24.750;2023-09-08T05:57:10;100164.75;;;23.47;60.61
32875;BME280;40468;42.128;24.750;2023-09-08T05:58:41;100157.88;;;23.54;60.39
32875;BME280;40468;42.128;24.750;2023-09-08T06:00:14;100156.16;;;23.63;60.33
32875;BME280;40468;42.128;24.750;2023-09-08T06:01:46;100153.50;;;23.63;59.96
32875;BME280;40468;42.128;24.750;2023-09-08T06:03:16;100165.00;;;23.64;59.90
32875;BME280;40468;42.128;24.750;2023-09-08T06:04:48;100161.50;;;23.63;59.84
32875;BME280;40468;42.128;24.750;2023-09-08T06:06:20;100158.16;;;23.61;59.80
32875;BME280;40468;42.128;24.750;2023-09-08T06:07:50;100159.00;;;23.61;60.24
32875;BME280;40468;42.128;24.750;2023-09-08T06:09:22;100162.19;;;23.65;60.01
32875;BME280;40468;42.128;24.750;2023-09-08T06:10:54;100164.56;;;23.68;60.08
32875;BME280;40468;42.128;24.750;2023-09-08T06:12:24;100156.88;;;23.65;59.48
32875;BME280;40468;42.128;24.750;2023-09-08T06:13:56;100156.34;;;23.61;59.53
32875;BME280;40468;42.128;24.750;2023-09-08T06:15:30;100163.72;;;23.68;59.46
32875;BME280;40468;42.128;24.750;2023-09-08T06:17:02;100158.56;;;23.76;59.67
32875;BME280;40468;42.128;24.750;2023-09-08T06:18:34;100160.22;;;23.77;58.89
32875;BME280;40468;42.128;24.750;2023-09-08T06:20:10;100169.75;;;23.79;58.80
32875;BME280;40468;42.128;24.750;2023-09-08T06:21:42;100168.16;;;23.87;58.81
32875;BME280;40468;42.128;24.750;2023-09-08T06:23:13;100170.94;;;23.95;58.66
32875;BME280;40468;42.128;24.750;2023-09-08T06:24:45;100162.06;;;24.04;58.36
32875;BME280;40468;42.128;24.750;2023-09-08T06:26:17;100177.44;;;24.10;58.53
32875;BME280;40468;42.128;24.750;2023-09-08T06:27:48;100175.19;;;24.15;58.00
32875;BME280;40468;42.128;24.750;2023-09-08T06:29:19;100171.81;;;24.23;57.87
32875;BME280;40468;42.128;24.750;2023-09-08T06:30:52;100176.38;;;24.30;57.68
32875;BME280;40468;42.128;24.750;2023-09-08T06:32:22;100179.84;;;24.31;57.88
32875;BME280;40468;42.128;24.750;2023-09-08T06:33:54;100180.78;;;24.40;57.76
32875;BME280;40468;42.128;24.750;2023-09-08T06:35:25;100185.13;;;24.50;57.15
32875;BME280;40468;42.128;24.750;2023-09-08T06:36:57;100185.75;;;24.62;57.03
32875;BME280;40468;42.128;24.750;2023-09-08T06:38:29;100172.88;;;24.75;56.97
32875;BME280;40468;42.128;24.750;2023-09-08T06:40:01;100183.31;;;24.87;56.21
32875;BME280;40468;42.128;24.750;2023-09-08T06:41:32;100180.88;;;24.93;56.51
32875;BME280;40468;42.128;24.750;2023-09-08T06:43:04;100179.41;;;24.99;56.25
32875;BME280;40468;42.128;24.750;2023-09-08T06:44:35;100181.25;;;24.98;56.08
32875;BME280;40468;42.128;24.750;2023-09-08T06:46:07;100186.75;;;24.97;55.90
32875;BME280;40468;42.128;24.750;2023-09-08T06:47:39;100177.63;;;25.00;56.12
32875;BME280;40468;42.128;24.750;2023-09-08T06:49:10;100184.44;;;25.02;55.97
32875;BME280;40468;42.128;24.750;2023-09-08T06:50:41;100184.09;;;24.97;55.94
32875;BME280;40468;42.128;24.750;2023-09-08T06:52:13;100181.63;;;25.04;55.88
32875;BME280;40468;42.128;24.750;2023-09-08T06:53:44;100192.50;;;25.10;55.63
32875;BME280;40468;42.128;24.750;2023-09-08T06:55:16;100175.94;;;25.16;55.99
32875;BME280;40468;42.128;24.750;2023-09-08T06:56:46;100183.38;;;25.31;55.86
32875;BME280;40468;42.128;24.750;2023-09-08T06:58:18;100184.13;;;25.41;55.80
32875;BME280;40468;42.128;24.750;2023-09-08T06:59:50;100180.56;;;25.58;55.58
32875;BME280;40468;42.128;24.750;2023-09-08T07:01:22;100182.72;;;25.81;55.46
32875;BME280;40468;42.128;24.750;2023-09-08T07:02:54;100189.25;;;26.13;55.50
32875;BME280;40468;42.128;24.750;2023-09-08T07:04:25;100186.34;;;26.48;54.96
32875;BME280;40468;42.128;24.750;2023-09-08T07:05:57;100189.63;;;26.85;53.68
32875;BME280;40468;42.128;24.750;2023-09-08T07:07:29;100189.69;;;27.17;53.23
32875;BME280;40468;42.128;24.750;2023-09-08T07:09:01;100190.50;;;27.42;52.72
32875;BME280;40468;42.128;24.750;2023-09-08T07:10:33;100192.63;;;27.72;52.76
32875;BME280;40468;42.128;24.750;2023-09-08T07:12:04;100193.69;;;28.10;51.70
32875;BME280;40468;42.128;24.750;2023-09-08T07:13:36;100200.31;;;28.30;50.25
32875;BME280;40468;42.128;24.750;2023-09-08T07:15:07;100196.09;;;28.36;48.79
32875;BME280;40468;42.128;24.750;2023-09-08T07:16:41;100191.16;;;28.56;48.50
32875;BME280;40468;42.128;24.750;2023-09-08T07:18:12;100192.31;;;28.62;47.43
32875;BME280;40468;42.128;24.750;2023-09-08T07:19:43;100180.00;;;28.75;47.25
32875;BME280;40468;42.128;24.750;2023-09-08T07:21:15;100182.75;;;29.13;46.80
32875;BME280;40468;42.128;24.750;2023-09-08T07:22:47;100186.53;;;29.42;46.06
32875;BME280;40468;42.128;24.750;2023-09-08T07:24:17;100184.09;;;29.70;45.58
32875;BME280;40468;42.128;24.750;2023-09-08T07:25:49;100176.13;;;29.91;45.03
32875;BME280;40468;42.128;24.750;2023-09-08T07:27:19;100181.84;;;30.18;44.53
32875;BME280;40468;42.128;24.750;2023-09-08T07:28:51;100184.25;;;30.28;43.36
32875;BME280;40468;42.128;24.750;2023-09-08T07:30:22;100189.72;;;30.34;42.84
32875;BME280;40468;42.128;24.750;2023-09-08T07:31:55;100183.09;;;30.52;42.79
32875;BME280;40468;42.128;24.750;2023-09-08T07:33:26;100178.69;;;30.66;42.14
32875;BME280;40468;42.128;24.750;2023-09-08T07:34:57;100178.06;;;30.85;42.28
32875;BME280;40468;42.128;24.750;2023-09-08T07:36:28;100178.88;;;31.00;40.87
32875;BME280;40468;42.128;24.750;2023-09-08T07:38:00;100172.94;;;31.12;39.95
32875;BME280;40468;42.128;24.750;2023-09-08T07:39:30;100172.03;;;31.26;39.74
32875;BME280;40468;42.128;24.750;2023-09-08T07:41:03;100173.72;;;31.27;39.14
32875;BME280;40468;42.128;24.750;2023-09-08T07:42:33;100166.56;;;31.13;38.88
32875;BME280;40468;42.128;24.750;2023-09-08T07:44:05;100169.88;;;30.93;38.42
32875;BME280;40468;42.128;24.750;2023-09-08T07:45:37;100173.47;;;30.43;38.54
32875;BME280;40468;42.128;24.750;2023-09-08T07:47:11;100168.59;;;30.16;39.20
32875;BME280;40468;42.128;24.750;2023-09-08T07:48:43;100159.44;;;30.11;39.29
32875;BME280;40468;42.128;24.750;2023-09-08T07:50:17;100159.97;;;30.36;39.69
32875;BME280;40468;42.128;24.750;2023-09-08T07:51:50;100160.59;;;30.53;37.90
32875;BME280;40468;42.128;24.750;2023-09-08T07:53:20;100161.81;;;30.72;38.01
32875;BME280;40468;42.128;24.750;2023-09-08T07:54:52;100159.66;;;31.03;37.72
32875;BME280;40468;42.128;24.750;2023-09-08T07:56:22;100166.81;;;31.18;36.60